East Lexington, Virginia
Current Conditions -  °F | °C
As of 6:15 AM on Sunday 23 Nov 2014 (Local Time) from KHSP Reporting Station
Broken Clouds Broken Clouds  
Wind Chill: 44°   Ceiling: 8500
Heat Index: 47°   Visibility: 10mi
Dew Point: 31°   Wind: 7mph
Humidity: 53%   Direction: 210°SSW
Pressure: 30.16"   Gusts: NA
Location:  37.7866°N, 79.5193°W
Report Text: KHSP 231115Z AUTO 21006KT 10SM BKN085 09/M01 A3016 RMK AO2 T00851007
Loading
Personal Weather Stations






























Interactive Weather Map New forecast layout! Learn more

10-Day Weather Forecast

Advertisements
Track Severe Weather on mobile